sensor_id;sensor_type;location;lat;lon;timestamp;pressure;altitude;pressure_sealevel;temperature;humidity
58662;BME280;44432;49.786;22.760;2022-12-18T00:00:52;100536.91;;;-3.72;83.42
58662;BME280;44432;49.786;22.760;2022-12-18T00:03:42;100548.04;;;-3.74;83.21
58662;BME280;44432;49.786;22.760;2022-12-18T00:06:13;100549.91;;;-3.80;83.34
58662;BME280;44432;49.786;22.760;2022-12-18T00:08:45;100557.16;;;-3.77;83.50
58662;BME280;44432;49.786;22.760;2022-12-18T00:11:17;100564.28;;;-3.76;83.53
58662;BME280;44432;49.786;22.760;2022-12-18T00:13:48;100570.79;;;-3.75;83.55
58662;BME280;44432;49.786;22.760;2022-12-18T00:16:21;100577.69;;;-3.75;83.35
58662;BME280;44432;49.786;22.760;2022-12-18T00:18:51;100576.29;;;-3.81;83.16
58662;BME280;44432;49.786;22.760;2022-12-18T00:21:22;100578.24;;;-3.85;83.20
58662;BME280;44432;49.786;22.760;2022-12-18T00:23:53;100583.98;;;-3.86;83.22
58662;BME280;44432;49.786;22.760;2022-12-18T00:26:26;100585.65;;;-3.88;83.22
58662;BME280;44432;49.786;22.760;2022-12-18T00:28:59;100595.09;;;-3.88;83.36
58662;BME280;44432;49.786;22.760;2022-12-18T00:31:30;100604.64;;;-3.89;83.17
58662;BME280;44432;49.786;22.760;2022-12-18T00:34:02;100614.48;;;-3.89;83.35
58662;BME280;44432;49.786;22.760;2022-12-18T00:36:35;100622.05;;;-3.90;83.27
58662;BME280;44432;49.786;22.760;2022-12-18T00:39:06;100622.52;;;-3.92;82.92
58662;BME280;44432;49.786;22.760;2022-12-18T00:41:37;100624.85;;;-3.94;83.11
58662;BME280;44432;49.786;22.760;2022-12-18T00:44:25;100624.00;;;-4.00;82.75
58662;BME280;44432;49.786;22.760;2022-12-18T00:46:55;100638.71;;;-4.05;82.84
58662;BME280;44432;49.786;22.760;2022-12-18T00:49:26;100639.48;;;-4.09;82.84
58662;BME280;44432;49.786;22.760;2022-12-18T00:51:57;100642.80;;;-4.10;83.31
58662;BME280;44432;49.786;22.760;2022-12-18T00:54:28;100643.56;;;-4.11;83.32
58662;BME280;44432;49.786;22.760;2022-12-18T00:56:58;100651.69;;;-4.09;83.46
58662;BME280;44432;49.786;22.760;2022-12-18T00:59:29;100658.91;;;-4.09;83.26
58662;BME280;44432;49.786;22.760;2022-12-18T01:02:00;100663.27;;;-4.11;83.18
58662;BME280;44432;49.786;22.760;2022-12-18T01:04:32;100661.44;;;-4.11;83.28
58662;BME280;44432;49.786;22.760;2022-12-18T01:07:03;100667.77;;;-4.11;83.35
58662;BME280;44432;49.786;22.760;2022-12-18T01:09:33;100667.51;;;-4.15;83.17
58662;BME280;44432;49.786;22.760;2022-12-18T01:12:05;100677.36;;;-4.16;83.14
58662;BME280;44432;49.786;22.760;2022-12-18T01:14:36;100686.38;;;-4.17;83.12
58662;BME280;44432;49.786;22.760;2022-12-18T01:17:07;100688.60;;;-4.20;83.20
58662;BME280;44432;49.786;22.760;2022-12-18T01:19:37;100689.24;;;-4.19;83.53
58662;BME280;44432;49.786;22.760;2022-12-18T01:22:08;100698.80;;;-4.17;83.33
58662;BME280;44432;49.786;22.760;2022-12-18T01:24:38;100703.45;;;-4.18;83.33
58662;BME280;44432;49.786;22.760;2022-12-18T01:27:09;100708.27;;;-4.18;83.32
58662;BME280;44432;49.786;22.760;2022-12-18T01:29:40;100709.70;;;-4.19;83.25
58662;BME280;44432;49.786;22.760;2022-12-18T01:32:10;100714.67;;;-4.19;83.26
58662;BME280;44432;49.786;22.760;2022-12-18T01:34:41;100719.46;;;-4.18;83.25
58662;BME280;44432;49.786;22.760;2022-12-18T01:37:11;100720.80;;;-4.18;83.29
58662;BME280;44432;49.786;22.760;2022-12-18T01:39:42;100723.17;;;-4.17;83.32
58662;BME280;44432;49.786;22.760;2022-12-18T01:42:14;100727.17;;;-4.18;83.26
58662;BME280;44432;49.786;22.760;2022-12-18T01:44:59;100728.85;;;-4.17;83.32
58662;BME280;44432;49.786;22.760;2022-12-18T01:47:34;100727.84;;;-4.17;83.23
58662;BME280;44432;49.786;22.760;2022-12-18T01:50:09;100729.25;;;-4.18;83.25
58662;BME280;44432;49.786;22.760;2022-12-18T01:52:42;100726.19;;;-4.19;83.42
58662;BME280;44432;49.786;22.760;2022-12-18T01:55:16;100727.17;;;-4.18;83.32
58662;BME280;44432;49.786;22.760;2022-12-18T01:57:48;100728.34;;;-4.17;83.34
58662;BME280;44432;49.786;22.760;2022-12-18T02:00:21;100732.95;;;-4.17;83.42
58662;BME280;44432;49.786;22.760;2022-12-18T02:02:53;100734.77;;;-4.16;83.52
58662;BME280;44432;49.786;22.760;2022-12-18T02:05:31;100735.27;;;-4.13;83.62
58662;BME280;44432;49.786;22.760;2022-12-18T02:08:10;100740.34;;;-4.11;83.51
58662;BME280;44432;49.786;22.760;2022-12-18T02:10:48;100740.67;;;-4.08;83.61
58662;BME280;44432;49.786;22.760;2022-12-18T02:13:27;100741.73;;;-4.08;83.48
58662;BME280;44432;49.786;22.760;2022-12-18T02:16:05;100743.38;;;-4.10;83.24
58662;BME280;44432;49.786;22.760;2022-12-18T02:18:40;100741.27;;;-4.12;83.36
58662;BME280;44432;49.786;22.760;2022-12-18T02:21:23;100743.87;;;-4.10;83.60
58662;BME280;44432;49.786;22.760;2022-12-18T02:24:04;100749.82;;;-4.08;83.50
58662;BME280;44432;49.786;22.760;2022-12-18T02:26:44;100748.99;;;-4.06;83.62
58662;BME280;44432;49.786;22.760;2022-12-18T02:29:20;100756.15;;;-4.05;83.60
58662;BME280;44432;49.786;22.760;2022-12-18T02:31:54;100757.89;;;-4.02;83.70
58662;BME280;44432;49.786;22.760;2022-12-18T02:34:29;100763.95;;;-4.03;83.43
58662;BME280;44432;49.786;22.760;2022-12-18T02:37:03;100764.98;;;-4.03;83.54
58662;BME280;44432;49.786;22.760;2022-12-18T02:39:38;100765.74;;;-4.04;83.38
58662;BME280;44432;49.786;22.760;2022-12-18T02:42:11;100769.75;;;-4.05;83.63
58662;BME280;44432;49.786;22.760;2022-12-18T02:44:46;100776.20;;;-4.04;83.66
58662;BME280;44432;49.786;22.760;2022-12-18T02:47:19;100776.34;;;-4.06;83.64
58662;BME280;44432;49.786;22.760;2022-12-18T02:49:57;100783.64;;;-4.04;83.58
58662;BME280;44432;49.786;22.760;2022-12-18T02:52:38;100792.73;;;-4.04;83.57
58662;BME280;44432;49.786;22.760;2022-12-18T02:55:23;100793.56;;;-4.07;83.53
58662;BME280;44432;49.786;22.760;2022-12-18T02:58:01;100796.30;;;-4.10;83.52
58662;BME280;44432;49.786;22.760;2022-12-18T03:00:37;100794.00;;;-4.11;83.54
58662;BME280;44432;49.786;22.760;2022-12-18T03:03:14;100802.55;;;-4.10;83.82
58662;BME280;44432;49.786;22.760;2022-12-18T03:05:49;100805.77;;;-4.10;83.67
58662;BME280;44432;49.786;22.760;2022-12-18T03:08:23;100808.69;;;-4.10;83.61
58662;BME280;44432;49.786;22.760;2022-12-18T03:10:59;100814.36;;;-4.09;83.54
58662;BME280;44432;49.786;22.760;2022-12-18T03:13:34;100820.21;;;-4.09;83.30
58662;BME280;44432;49.786;22.760;2022-12-18T03:16:10;100820.44;;;-4.11;83.34
58662;BME280;44432;49.786;22.760;2022-12-18T03:18:45;100824.59;;;-4.11;83.25
58662;BME280;44432;49.786;22.760;2022-12-18T03:21:22;100834.96;;;-4.15;83.12
58662;BME280;44432;49.786;22.760;2022-12-18T03:23:55;100840.88;;;-4.16;83.07
58662;BME280;44432;49.786;22.760;2022-12-18T03:26:28;100847.27;;;-4.17;83.19
58662;BME280;44432;49.786;22.760;2022-12-18T03:29:02;100850.48;;;-4.19;82.97
58662;BME280;44432;49.786;22.760;2022-12-18T03:31:34;100855.99;;;-4.19;83.16
58662;BME280;44432;49.786;22.760;2022-12-18T03:34:08;100863.67;;;-4.18;83.19
58662;BME280;44432;49.786;22.760;2022-12-18T03:36:40;100867.11;;;-4.21;82.78
58662;BME280;44432;49.786;22.760;2022-12-18T03:39:11;100873.64;;;-4.24;82.69
58662;BME280;44432;49.786;22.760;2022-12-18T03:41:45;100877.02;;;-4.30;82.44
58662;BME280;44432;49.786;22.760;2022-12-18T03:44:23;100882.45;;;-4.35;82.42
58662;BME280;44432;49.786;22.760;2022-12-18T03:47:05;100889.41;;;-4.41;82.40
58662;BME280;44432;49.786;22.760;2022-12-18T03:49:41;100891.05;;;-4.46;82.38
58662;BME280;44432;49.786;22.760;2022-12-18T03:52:20;100898.50;;;-4.50;82.45
58662;BME280;44432;49.786;22.760;2022-12-18T03:54:56;100901.73;;;-4.53;82.51
58662;BME280;44432;49.786;22.760;2022-12-18T03:57:30;100905.13;;;-4.56;82.50
58662;BME280;44432;49.786;22.760;2022-12-18T04:00:05;100905.44;;;-4.58;82.52
58662;BME280;44432;49.786;22.760;2022-12-18T04:02:40;100912.32;;;-4.62;82.60
58662;BME280;44432;49.786;22.760;2022-12-18T04:05:14;100908.99;;;-4.65;82.74
58662;BME280;44432;49.786;22.760;2022-12-18T04:07:47;100914.45;;;-4.64;82.89
58662;BME280;44432;49.786;22.760;2022-12-18T04:10:16;100913.34;;;-4.66;82.82
58662;BME280;44432;49.786;22.760;2022-12-18T04:12:47;100921.30;;;-4.70;82.69
58662;BME280;44432;49.786;22.760;2022-12-18T04:15:18;100919.80;;;-4.74;82.85
58662;BME280;44432;49.786;22.760;2022-12-18T04:17:50;100921.44;;;-4.76;83.04
58662;BME280;44432;49.786;22.760;2022-12-18T04:20:21;100929.00;;;-4.76;83.05
58662;BME280;44432;49.786;22.760;2022-12-18T04:22:51;100930.70;;;-4.73;83.38
58662;BME280;44432;49.786;22.760;2022-12-18T04:25:22;100938.42;;;-4.69;83.31
58662;BME280;44432;49.786;22.760;2022-12-18T04:27:52;100939.91;;;-4.68;83.29
58662;BME280;44432;49.786;22.760;2022-12-18T04:30:23;100941.37;;;-4.66;83.32
58662;BME280;44432;49.786;22.760;2022-12-18T04:32:54;100948.34;;;-4.64;83.38
58662;BME280;44432;49.786;22.760;2022-12-18T04:35:24;100951.09;;;-4.61;83.26
58662;BME280;44432;49.786;22.760;2022-12-18T04:37:55;100955.38;;;-4.61;83.29
58662;BME280;44432;49.786;22.760;2022-12-18T04:40:26;100951.91;;;-4.60;83.30
58662;BME280;44432;49.786;22.760;2022-12-18T04:42:56;100956.58;;;-4.57;83.58
58662;BME280;44432;49.786;22.760;2022-12-18T04:45:27;100956.05;;;-4.57;83.49
58662;BME280;44432;49.786;22.760;2022-12-18T04:47:58;100959.02;;;-4.54;83.56
58662;BME280;44432;49.786;22.760;2022-12-18T04:50:29;100965.38;;;-4.51;83.72
58662;BME280;44432;49.786;22.760;2022-12-18T04:53:00;100969.08;;;-4.49;83.49
58662;BME280;44432;49.786;22.760;2022-12-18T04:55:30;100972.48;;;-4.49;83.66
58662;BME280;44432;49.786;22.760;2022-12-18T04:58:01;100967.27;;;-4.47;83.45
58662;BME280;44432;49.786;22.760;2022-12-18T05:00:31;100968.19;;;-4.49;83.19
58662;BME280;44432;49.786;22.760;2022-12-18T05:03:03;100975.35;;;-4.51;83.33
58662;BME280;44432;49.786;22.760;2022-12-18T05:05:35;100977.41;;;-4.55;83.28
58662;BME280;44432;49.786;22.760;2022-12-18T05:08:06;100988.45;;;-4.55;83.32
58662;BME280;44432;49.786;22.760;2022-12-18T05:10:37;100987.89;;;-4.58;83.44
58662;BME280;44432;49.786;22.760;2022-12-18T05:13:07;101003.71;;;-4.55;83.52
58662;BME280;44432;49.786;22.760;2022-12-18T05:15:38;101004.22;;;-4.55;83.37
58662;BME280;44432;49.786;22.760;2022-12-18T05:18:08;101010.04;;;-4.54;83.28
58662;BME280;44432;49.786;22.760;2022-12-18T05:20:39;101015.23;;;-4.55;83.16
58662;BME280;44432;49.786;22.760;2022-12-18T05:23:09;101023.10;;;-4.58;82.97
58662;BME280;44432;49.786;22.760;2022-12-18T05:25:40;101024.16;;;-4.62;82.97
58662;BME280;44432;49.786;22.760;2022-12-18T05:28:11;101025.97;;;-4.64;83.09
58662;BME280;44432;49.786;22.760;2022-12-18T05:30:44;101031.80;;;-4.64;83.21
58662;BME280;44432;49.786;22.760;2022-12-18T05:33:15;101035.78;;;-4.65;83.30
58662;BME280;44432;49.786;22.760;2022-12-18T05:35:49;101041.05;;;-4.63;83.24
58662;BME280;44432;49.786;22.760;2022-12-18T05:38:21;101043.12;;;-4.64;83.16
58662;BME280;44432;49.786;22.760;2022-12-18T05:40:52;101042.76;;;-4.63;83.12
58662;BME280;44432;49.786;22.760;2022-12-18T05:43:24;101046.73;;;-4.63;83.02
58662;BME280;44432;49.786;22.760;2022-12-18T05:45:55;101046.34;;;-4.66;82.83
58662;BME280;44432;49.786;22.760;2022-12-18T05:48:26;101047.76;;;-4.71;82.71
58662;BME280;44432;49.786;22.760;2022-12-18T05:51:02;101050.20;;;-4.75;82.71
58662;BME280;44432;49.786;22.760;2022-12-18T05:53:33;101058.10;;;-4.79;82.67
58662;BME280;44432;49.786;22.760;2022-12-18T05:56:05;101063.77;;;-4.82;82.64
58662;BME280;44432;49.786;22.760;2022-12-18T05:58:36;101068.63;;;-4.83;82.70
58662;BME280;44432;49.786;22.760;2022-12-18T06:01:13;101069.86;;;-4.84;82.75
58662;BME280;44432;49.786;22.760;2022-12-18T06:03:44;101076.31;;;-4.83;83.06
58662;BME280;44432;49.786;22.760;2022-12-18T06:06:17;101083.77;;;-4.80;83.01
58662;BME280;44432;49.786;22.760;2022-12-18T06:08:48;101091.47;;;-4.80;82.67
58662;BME280;44432;49.786;22.760;2022-12-18T06:11:21;101088.95;;;-4.81;82.44
58662;BME280;44432;49.786;22.760;2022-12-18T06:13:52;101092.56;;;-4.85;82.00
58662;BME280;44432;49.786;22.760;2022-12-18T06:16:23;101096.21;;;-4.93;81.76
58662;BME280;44432;49.786;22.760;2022-12-18T06:18:55;101103.83;;;-4.99;81.55
58662;BME280;44432;49.786;22.760;2022-12-18T06:21:25;101103.04;;;-5.08;81.47
58662;BME280;44432;49.786;22.760;2022-12-18T06:23:56;101117.79;;;-5.07;81.87
58662;BME280;44432;49.786;22.760;2022-12-18T06:26:27;101130.73;;;-5.09;81.75
58662;BME280;44432;49.786;22.760;2022-12-18T06:28:58;101133.52;;;-5.10;81.70
58662;BME280;44432;49.786;22.760;2022-12-18T06:31:28;101136.40;;;-5.13;81.65
58662;BME280;44432;49.786;22.760;2022-12-18T06:33:59;101140.20;;;-5.13;81.82
58662;BME280;44432;49.786;22.760;2022-12-18T06:36:29;101144.09;;;-5.12;81.73
58662;BME280;44432;49.786;22.760;2022-12-18T06:39:00;101145.94;;;-5.11;81.83
58662;BME280;44432;49.786;22.760;2022-12-18T06:41:31;101157.15;;;-5.08;81.95
58662;BME280;44432;49.786;22.760;2022-12-18T06:44:01;101157.51;;;-5.09;81.55
58662;BME280;44432;49.786;22.760;2022-12-18T06:46:32;101159.64;;;-5.11;81.27
58662;BME280;44432;49.786;22.760;2022-12-18T06:49:02;101162.17;;;-5.17;80.42
58662;BME280;44432;49.786;22.760;2022-12-18T06:51:33;101163.79;;;-5.26;80.55
58662;BME280;44432;49.786;22.760;2022-12-18T06:54:04;101165.83;;;-5.25;81.06
58662;BME280;44432;49.786;22.760;2022-12-18T06:56:35;101174.45;;;-5.23;81.20
58662;BME280;44432;49.786;22.760;2022-12-18T06:59:06;101178.23;;;-5.19;81.34
58662;BME280;44432;49.786;22.760;2022-12-18T07:01:36;101180.02;;;-5.20;80.82
58662;BME280;44432;49.786;22.760;2022-12-18T07:04:07;101183.05;;;-5.19;80.91
58662;BME280;44432;49.786;22.760;2022-12-18T07:06:38;101183.73;;;-5.19;81.13
58662;BME280;44432;49.786;22.760;2022-12-18T07:09:08;101187.21;;;-5.16;80.94
58662;BME280;44432;49.786;22.760;2022-12-18T07:11:39;101189.52;;;-5.15;80.85
58662;BME280;44432;49.786;22.760;2022-12-18T07:14:09;101192.32;;;-5.12;80.96
58662;BME280;44432;49.786;22.760;2022-12-18T07:16:40;101196.18;;;-5.10;80.77
58662;BME280;44432;49.786;22.760;2022-12-18T07:19:11;101200.96;;;-5.09;80.71
58662;BME280;44432;49.786;22.760;2022-12-18T07:21:41;101202.52;;;-5.09;80.82
58662;BME280;44432;49.786;22.760;2022-12-18T07:24:12;101210.38;;;-5.05;80.86
58662;BME280;44432;49.786;22.760;2022-12-18T07:26:43;101214.48;;;-5.00;81.09
58662;BME280;44432;49.786;22.760;2022-12-18T07:29:15;101217.97;;;-4.94;81.25
58662;BME280;44432;49.786;22.760;2022-12-18T07:31:46;101220.98;;;-4.88;81.23
58662;BME280;44432;49.786;22.760;2022-12-18T07:34:17;101229.83;;;-4.86;80.70
58662;BME280;44432;49.786;22.760;2022-12-18T07:36:47;101226.72;;;-4.85;80.81
58662;BME280;44432;49.786;22.760;2022-12-18T07:39:18;101228.95;;;-4.81;80.93
58662;BME280;44432;49.786;22.760;2022-12-18T07:41:48;101232.13;;;-4.79;80.57
58662;BME280;44432;49.786;22.760;2022-12-18T07:44:40;101233.89;;;-4.80;80.40
58662;BME280;44432;49.786;22.760;2022-12-18T07:47:10;101235.67;;;-4.78;80.55
58662;BME280;44432;49.786;22.760;2022-12-18T07:49:41;101238.63;;;-4.75;80.56
58662;BME280;44432;49.786;22.760;2022-12-18T07:52:11;101242.84;;;-4.73;80.46
58662;BME280;44432;49.786;22.760;2022-12-18T07:54:42;101246.39;;;-4.68;80.50
58662;BME280;44432;49.786;22.760;2022-12-18T07:57:13;101250.38;;;-4.69;80.04
58662;BME280;44432;49.786;22.760;2022-12-18T07:59:44;101250.44;;;-4.74;79.50
58662;BME280;44432;49.786;22.760;2022-12-18T08:02:14;101253.36;;;-4.74;80.07
58662;BME280;44432;49.786;22.760;2022-12-18T08:04:45;101259.80;;;-4.72;80.23
58662;BME280;44432;49.786;22.760;2022-12-18T08:07:16;101265.77;;;-4.67;79.96
58662;BME280;44432;49.786;22.760;2022-12-18T08:09:46;101266.55;;;-4.69;79.43
58662;BME280;44432;49.786;22.760;2022-12-18T08:12:18;101267.55;;;-4.73;79.42
58662;BME280;44432;49.786;22.760;2022-12-18T08:14:48;101273.15;;;-4.71;79.42
58662;BME280;44432;49.786;22.760;2022-12-18T08:17:20;101266.13;;;-4.68;79.59
58662;BME280;44432;49.786;22.760;2022-12-18T08:19:51;101261.35;;;-4.61;79.74
58662;BME280;44432;49.786;22.760;2022-12-18T08:22:21;101268.76;;;-4.53;79.84
58662;BME280;44432;49.786;22.760;2022-12-18T08:24:52;101267.27;;;-4.47;79.70
58662;BME280;44432;49.786;22.760;2022-12-18T08:27:22;101270.20;;;-4.39;79.64
58662;BME280;44432;49.786;22.760;2022-12-18T08:29:53;101273.39;;;-4.30;79.71
58662;BME280;44432;49.786;22.760;2022-12-18T08:32:24;101278.52;;;-4.21;79.42
58662;BME280;44432;49.786;22.760;2022-12-18T08:34:55;101275.05;;;-4.17;79.28
58662;BME280;44432;49.786;22.760;2022-12-18T08:37:25;101270.45;;;-4.08;79.55
58662;BME280;44432;49.786;22.760;2022-12-18T08:39:56;101275.61;;;-4.00;79.30
58662;BME280;44432;49.786;22.760;2022-12-18T08:42:27;101281.48;;;-3.93;79.09
58662;BME280;44432;49.786;22.760;2022-12-18T08:45:15;101280.02;;;-3.91;78.76
58662;BME280;44432;49.786;22.760;2022-12-18T08:47:47;101283.71;;;-3.86;78.81
58662;BME280;44432;49.786;22.760;2022-12-18T08:50:17;101290.29;;;-3.79;78.97
58662;BME280;44432;49.786;22.760;2022-12-18T08:52:49;101289.02;;;-3.74;78.76
58662;BME280;44432;49.786;22.760;2022-12-18T08:55:20;101291.69;;;-3.69;78.95
58662;BME280;44432;49.786;22.760;2022-12-18T08:57:50;101293.34;;;-3.60;79.15
58662;BME280;44432;49.786;22.760;2022-12-18T09:00:21;101293.64;;;-3.52;78.95
58662;BME280;44432;49.786;22.760;2022-12-18T09:02:52;101296.31;;;-3.46;78.84
58662;BME280;44432;49.786;22.760;2022-12-18T09:05:23;101301.66;;;-3.43;78.51
58662;BME280;44432;49.786;22.760;2022-12-18T09:07:53;101303.11;;;-3.41;78.51
58662;BME280;44432;49.786;22.760;2022-12-18T09:10:24;101308.56;;;-3.37;78.56
58662;BME280;44432;49.786;22.760;2022-12-18T09:12:55;101305.05;;;-3.32;78.54
58662;BME280;44432;49.786;22.760;2022-12-18T09:15:26;101302.98;;;-3.24;78.62
58662;BME280;44432;49.786;22.760;2022-12-18T09:17:57;101303.36;;;-3.18;78.31
58662;BME280;44432;49.786;22.760;2022-12-18T09:20:27;101305.55;;;-3.11;78.22
58662;BME280;44432;49.786;22.760;2022-12-18T09:22:59;101307.77;;;-3.07;78.13
58662;BME280;44432;49.786;22.760;2022-12-18T09:25:31;101307.88;;;-3.06;77.92
58662;BME280;44432;49.786;22.760;2022-12-18T09:28:03;101309.42;;;-3.02;78.12
58662;BME280;44432;49.786;22.760;2022-12-18T09:30:34;101312.97;;;-2.97;78.10
58662;BME280;44432;49.786;22.760;2022-12-18T09:33:07;101317.16;;;-2.95;77.87
58662;BME280;44432;49.786;22.760;2022-12-18T09:35:38;101318.83;;;-2.93;77.73
58662;BME280;44432;49.786;22.760;2022-12-18T09:38:13;101318.53;;;-2.95;77.45
58662;BME280;44432;49.786;22.760;2022-12-18T09:40:46;101314.38;;;-2.94;77.37
58662;BME280;44432;49.786;22.760;2022-12-18T09:43:20;101311.98;;;-2.94;77.34
58662;BME280;44432;49.786;22.760;2022-12-18T09:45:53;101314.70;;;-2.94;77.30
58662;BME280;44432;49.786;22.760;2022-12-18T09:48:29;101312.05;;;-2.93;77.22
58662;BME280;44432;49.786;22.760;2022-12-18T09:51:05;101312.00;;;-2.95;76.88
58662;BME280;44432;49.786;22.760;2022-12-18T09:53:40;101312.97;;;-2.97;77.02
58662;BME280;44432;49.786;22.760;2022-12-18T09:56:18;101310.45;;;-2.95;76.97
58662;BME280;44432;49.786;22.760;2022-12-18T09:58:58;101311.55;;;-2.93;77.12
58662;BME280;44432;49.786;22.760;2022-12-18T10:01:31;101307.70;;;-2.88;77.14
58662;BME280;44432;49.786;22.760;2022-12-18T10:04:00;101307.96;;;-2.87;76.68
58662;BME280;44432;49.786;22.760;2022-12-18T10:06:37;101309.36;;;-2.87;76.93
58662;BME280;44432;49.786;22.760;2022-12-18T10:09:19;101312.02;;;-2.85;76.99
58662;BME280;44432;49.786;22.760;2022-12-18T10:11:55;101312.60;;;-2.79;77.07
58662;BME280;44432;49.786;22.760;2022-12-18T10:14:34;101313.54;;;-2.74;76.91
58662;BME280;44432;49.786;22.760;2022-12-18T10:17:16;101311.77;;;-2.73;76.63
58662;BME280;44432;49.786;22.760;2022-12-18T10:19:55;101311.45;;;-2.74;76.57
58662;BME280;44432;49.786;22.760;2022-12-18T10:22:38;101313.22;;;-2.75;76.49
58662;BME280;44432;49.786;22.760;2022-12-18T10:25:20;101315.23;;;-2.74;76.42
58662;BME280;44432;49.786;22.760;2022-12-18T10:27:55;101317.16;;;-2.71;76.27
58662;BME280;44432;49.786;22.760;2022-12-18T10:30:27;101308.15;;;-2.74;75.85
58662;BME280;44432;49.786;22.760;2022-12-18T10:33:02;101308.80;;;-2.72;75.92
58662;BME280;44432;49.786;22.760;2022-12-18T10:35:33;101309.89;;;-2.71;75.87
58662;BME280;44432;49.786;22.760;2022-12-18T10:38:19;101311.19;;;-2.72;75.36
58662;BME280;44432;49.786;22.760;2022-12-18T10:40:52;101314.70;;;-2.77;75.32
58662;BME280;44432;49.786;22.760;2022-12-18T10:43:26;101316.62;;;-2.77;75.26
58662;BME280;44432;49.786;22.760;2022-12-18T10:46:12;101321.23;;;-2.80;74.97
58662;BME280;44432;49.786;22.760;2022-12-18T10:48:55;101320.87;;;-2.83;74.96
58662;BME280;44432;49.786;22.760;2022-12-18T10:51:29;101311.60;;;-2.87;74.96
58662;BME280;44432;49.786;22.760;2022-12-18T10:54:02;101307.40;;;-2.89;74.65
58662;BME280;44432;49.786;22.760;2022-12-18T10:56:36;101315.55;;;-2.90;74.98
58662;BME280;44432;49.786;22.760;2022-12-18T10:59:10;101318.42;;;-2.89;75.01
58662;BME280;44432;49.786;22.760;2022-12-18T11:01:52;101320.35;;;-2.93;74.67
58662;BME280;44432;49.786;22.760;2022-12-18T11:04:23;101322.70;;;-2.95;75.01
58662;BME280;44432;49.786;22.760;2022-12-18T11:06:57;101319.89;;;-3.01;74.39
58662;BME280;44432;49.786;22.760;2022-12-18T11:09:29;101319.67;;;-3.04;74.81
58662;BME280;44432;49.786;22.760;2022-12-18T11:12:03;101316.79;;;-3.01;75.02
58662;BME280;44432;49.786;22.760;2022-12-18T11:14:43;101313.53;;;-2.98;75.37
58662;BME280;44432;49.786;22.760;2022-12-18T11:17:21;101310.44;;;-2.95;75.24
58662;BME280;44432;49.786;22.760;2022-12-18T11:19:55;101310.23;;;-2.94;74.98
58662;BME280;44432;49.786;22.760;2022-12-18T11:22:28;101315.08;;;-2.94;74.96
58662;BME280;44432;49.786;22.760;2022-12-18T11:25:01;101308.79;;;-2.96;74.95
58662;BME280;44432;49.786;22.760;2022-12-18T11:27:33;101309.00;;;-2.93;75.19
58662;BME280;44432;49.786;22.760;2022-12-18T11:30:22;101313.00;;;-2.94;74.87
58662;BME280;44432;49.786;22.760;2022-12-18T11:32:55;101307.65;;;-2.98;75.00
58662;BME280;44432;49.786;22.760;2022-12-18T11:35:34;101305.55;;;-2.97;75.20
58662;BME280;44432;49.786;22.760;2022-12-18T11:38:16;101306.89;;;-2.96;75.20
58662;BME280;44432;49.786;22.760;2022-12-18T11:40:53;101310.06;;;-2.94;75.13
58662;BME280;44432;49.786;22.760;2022-12-18T11:43:28;101312.17;;;-2.95;74.84
58662;BME280;44432;49.786;22.760;2022-12-18T11:46:05;101311.34;;;-3.03;74.48
58662;BME280;44432;49.786;22.760;2022-12-18T11:48:43;101312.14;;;-3.08;74.37
58662;BME280;44432;49.786;22.760;2022-12-18T11:51:22;101313.73;;;-3.09;74.67
58662;BME280;44432;49.786;22.760;2022-12-18T11:53:56;101313.64;;;-3.11;74.63
58662;BME280;44432;49.786;22.760;2022-12-18T11:56:32;101315.70;;;-3.14;74.52
58662;BME280;44432;49.786;22.760;2022-12-18T11:59:14;101315.95;;;-3.12;74.91
58662;BME280;44432;49.786;22.760;2022-12-18T12:01:52;101314.95;;;-3.09;74.89
58662;BME280;44432;49.786;22.760;2022-12-18T12:07:30;101319.55;;;-3.05;75.02
58662;BME280;44432;49.786;22.760;2022-12-18T12:10:12;101315.44;;;-3.06;74.75
58662;BME280;44432;49.786;22.760;2022-12-18T12:13:01;101311.22;;;-3.11;74.60
58662;BME280;44432;49.786;22.760;2022-12-18T12:15:41;101312.02;;;-3.16;73.98
58662;BME280;44432;49.786;22.760;2022-12-18T12:18:25;101314.27;;;-3.26;74.23
58662;BME280;44432;49.786;22.760;2022-12-18T12:21:05;101313.36;;;-3.25;75.00
58662;BME280;44432;49.786;22.760;2022-12-18T12:23:43;101311.86;;;-3.19;75.42
58662;BME280;44432;49.786;22.760;2022-12-18T12:26:24;101318.36;;;-3.12;75.32
58662;BME280;44432;49.786;22.760;2022-12-18T12:29:04;101325.95;;;-3.05;75.24
58662;BME280;44432;49.786;22.760;2022-12-18T12:31:53;101329.05;;;-3.09;74.47
58662;BME280;44432;49.786;22.760;2022-12-18T12:34:33;101334.34;;;-3.11;74.86
58662;BME280;44432;49.786;22.760;2022-12-18T12:37:15;101340.84;;;-3.10;74.95
58662;BME280;44432;49.786;22.760;2022-12-18T12:39:52;101340.95;;;-3.09;75.02
58662;BME280;44432;49.786;22.760;2022-12-18T12:42:32;101344.79;;;-3.10;74.86
58662;BME280;44432;49.786;22.760;2022-12-18T12:45:28;101347.42;;;-3.11;74.98
58662;BME280;44432;49.786;22.760;2022-12-18T12:48:04;101352.88;;;-3.13;74.71
58662;BME280;44432;49.786;22.760;2022-12-18T12:50:36;101353.95;;;-3.14;74.80
58662;BME280;44432;49.786;22.760;2022-12-18T12:53:13;101357.02;;;-3.17;74.79
58662;BME280;44432;49.786;22.760;2022-12-18T12:55:49;101362.48;;;-3.15;75.11
58662;BME280;44432;49.786;22.760;2022-12-18T12:58:25;101362.44;;;-3.15;75.19
58662;BME280;44432;49.786;22.760;2022-12-18T13:01:09;101362.91;;;-3.17;75.02
58662;BME280;44432;49.786;22.760;2022-12-18T13:03:54;101371.61;;;-3.19;74.91
58662;BME280;44432;49.786;22.760;2022-12-18T13:06:37;101378.73;;;-3.24;74.99
58662;BME280;44432;49.786;22.760;2022-12-18T13:09:10;101384.70;;;-3.23;75.21
58662;BME280;44432;49.786;22.760;2022-12-18T13:11:42;101389.77;;;-3.21;75.46
58662;BME280;44432;49.786;22.760;2022-12-18T13:14:34;101392.62;;;-3.19;75.38
58662;BME280;44432;49.786;22.760;2022-12-18T13:17:28;101393.41;;;-3.21;75.14